Weather at John Muir Walnut Creek Medical Center Heliport

Public forecast

Using degrees Fahrenheit for public forecast. Weather courtesy of forecast.io.

Closest aviation weather report (METAR) to John Muir Walnut Creek Medical Center Heliport

Closest report is Buchanan Field, 4.7 nm (8.7 km) N.

2024/05/26 07:53 (retrieved 23 minutes ago)

KCCR 260753Z AUTO 18014G22KT 10SM CLR 11/07 A3002 RMK AO2 SLP152 T01110072 402110111

Closest aviation forecast (TAF) to John Muir Walnut Creek Medical Center Heliport

Closest forecast is Metropolitan Oakland International Airport, 14.4 nm (26.6 km) SW.

2024/05/26 06:36 (retrieved 2 hours ago)

TAF KOAK 260533Z 2606/2712 26010KT P6SM OVC010 FM261700 26009KT P6SM FEW011 FM262000 28014KT P6SM SKC FM270400 27010KT P6SM SCT009 FM271000 23006KT P6SM BKN010